Time;durP1;ratioP1;P1;durP2;ratioP2;P2;SDS_P1;SDS_P2;PMS_P1;PMS_P2;Temp;Humidity;BMP_temperature;BMP_pressure;BME280_temperature;BME280_humidity;BME280_pressure;Samples;Min_cycle;Max_cycle;Signal;HPM_P1;HPM_P2
2021/11/01 00:01:54;;;;;;;31.90;20.65;;;9.70;99.90;;;;;;4939378;28;20058;-69
2021/11/01 00:04:22;;;;;;;33.00;22.10;;;9.70;99.90;;;;;;4939739;28;20055;-69
2021/11/01 00:06:49;;;;;;;38.10;23.55;;;9.70;99.90;;;;;;4939536;29;20043;-69
2021/11/01 00:09:17;;;;;;;34.35;23.15;;;9.70;99.90;;;;;;4955948;29;20099;-69
2021/11/01 00:11:44;;;;;;;34.40;22.42;;;9.70;99.90;;;;;;4955821;29;20468;-69
2021/11/01 00:14:12;;;;;;;33.83;21.58;;;9.70;99.90;;;;;;4954466;28;20044;-70
2021/11/01 00:16:41;;;;;;;36.20;22.60;;;9.60;99.90;;;;;;4956097;28;20422;-69
2021/11/01 00:19:08;;;;;;;39.20;23.13;;;9.70;99.90;;;;;;4938289;28;20521;-69
2021/11/01 00:21:35;;;;;;;34.20;23.10;;;9.60;99.90;;;;;;4938844;29;20051;-69
2021/11/01 00:24:03;;;;;;;34.88;22.77;;;9.60;99.90;;;;;;4956078;28;20470;-69
2021/11/01 00:26:30;;;;;;;35.33;22.20;;;9.70;99.90;;;;;;4955036;28;20043;-69
2021/11/01 00:28:58;;;;;;;33.47;21.83;;;9.60;99.90;;;;;;4955377;28;20602;-69
2021/11/01 00:31:25;;;;;;;33.28;21.70;;;9.60;99.90;;;;;;4955262;28;20050;-69
2021/11/01 00:33:52;;;;;;;33.22;22.10;;;9.60;99.90;;;;;;4955288;28;20146;-69
2021/11/01 00:36:19;;;;;;;31.83;21.05;;;9.60;99.90;;;;;;4955376;29;20051;-69
2021/11/01 00:38:48;;;;;;;33.42;21.85;;;9.60;99.90;;;;;;4949878;28;20038;-69
2021/11/01 00:41:16;;;;;;;34.70;22.42;;;9.50;99.90;;;;;;4924169;29;20032;-69
2021/11/01 00:43:43;;;;;;;35.92;22.48;;;9.50;99.90;;;;;;4941022;28;20070;-69
2021/11/01 00:46:11;;;;;;;36.13;23.38;;;9.50;99.90;;;;;;4955579;28;20051;-69
2021/11/01 00:48:38;;;;;;;33.20;21.45;;;9.50;99.90;;;;;;4948509;29;20054;-69
2021/11/01 00:51:06;;;;;;;34.88;22.63;;;9.50;99.90;;;;;;4949579;28;20057;-70
2021/11/01 00:53:35;;;;;;;34.55;21.63;;;9.50;99.90;;;;;;4950775;28;20039;-69
2021/11/01 00:56:04;;;;;;;35.10;22.65;;;9.40;99.90;;;;;;4954491;28;20141;-69
2021/11/01 00:58:34;;;;;;;33.28;21.92;;;9.40;99.90;;;;;;4954501;28;20047;-69
2021/11/01 01:01:02;;;;;;;31.13;21.55;;;9.40;99.90;;;;;;4938643;29;20046;-69
2021/11/01 01:03:31;;;;;;;33.03;21.83;;;9.30;99.90;;;;;;4922109;29;20107;-69
2021/11/01 01:06:02;;;;;;;35.63;22.77;;;9.30;99.90;;;;;;4953855;28;20043;-69
2021/11/01 01:08:30;;;;;;;32.30;21.58;;;9.30;99.90;;;;;;4954043;28;20134;-69
2021/11/01 01:10:57;;;;;;;34.45;22.08;;;9.30;99.90;;;;;;4936695;29;20054;-69
2021/11/01 01:13:28;;;;;;;32.85;21.63;;;9.30;99.90;;;;;;4953833;28;20466;-69
2021/11/01 01:18:36;;;;;;;36.60;23.25;;;9.30;99.90;;;;;;4954006;28;20187;-69
2021/11/01 01:23:50;;;;;;;33.58;21.95;;;9.30;99.90;;;;;;4953796;28;20047;-69
2021/11/01 01:26:18;;;;;;;31.70;21.13;;;9.30;99.90;;;;;;4952939;28;20035;-69
2021/11/01 01:28:45;;;;;;;31.98;21.20;;;9.30;99.90;;;;;;4954075;28;20466;-69
2021/11/01 01:31:14;;;;;;;31.27;21.77;;;9.30;99.90;;;;;;4954081;28;20425;-69
2021/11/01 01:33:41;;;;;;;31.10;21.85;;;9.20;99.90;;;;;;4920741;29;20126;-69
2021/11/01 01:36:09;;;;;;;31.73;21.30;;;9.20;99.90;;;;;;4953798;28;20065;-69
2021/11/01 01:38:37;;;;;;;34.17;22.63;;;9.20;99.90;;;;;;4952967;29;20039;-69
2021/11/01 01:41:18;;;;;;;32.08;21.05;;;9.20;99.90;;;;;;4953528;29;20070;-69
2021/11/01 01:43:47;;;;;;;32.55;20.92;;;9.20;99.90;;;;;;4951426;29;20051;-69
2021/11/01 01:46:16;;;;;;;34.10;22.40;;;9.10;99.90;;;;;;4953594;28;20051;-69
2021/11/01 01:48:43;;;;;;;33.83;23.15;;;9.10;99.90;;;;;;4953887;28;20044;-69
2021/11/01 01:51:13;;;;;;;35.33;22.63;;;9.20;99.90;;;;;;4953835;28;20487;-69
2021/11/01 01:53:41;;;;;;;37.00;23.80;;;9.20;99.90;;;;;;4951870;28;20051;-69
2021/11/01 01:56:09;;;;;;;33.15;21.60;;;9.20;99.90;;;;;;4953256;28;20130;-69
2021/11/01 01:58:43;;;;;;;35.40;22.60;;;9.20;99.90;;;;;;4935988;28;20502;-70
2021/11/01 02:01:15;;;;;;;31.02;22.08;;;9.20;99.90;;;;;;4895101;29;20508;-69
2021/11/01 02:03:50;;;;;;;33.40;21.67;;;9.20;99.90;;;;;;4955923;28;20050;-70
2021/11/01 02:06:40;;;;;;;35.03;22.55;;;9.20;99.90;;;;;;4953549;28;20526;-70
2021/11/01 02:09:12;;;;;;;33.83;22.95;;;9.20;99.90;;;;;;4953004;29;20083;-70
2021/11/01 02:12:02;;;;;;;33.58;23.13;;;9.20;99.90;;;;;;4952433;28;20043;-70
2021/11/01 02:14:38;;;;;;;38.90;23.42;;;9.20;99.90;;;;;;4935895;28;20035;-70
2021/11/01 02:17:06;;;;;;;34.15;22.00;;;9.30;99.90;;;;;;4952197;29;20050;-70
2021/11/01 02:19:45;;;;;;;35.42;23.75;;;9.30;99.90;;;;;;4936078;29;20047;-70
2021/11/01 02:22:25;;;;;;;33.13;23.05;;;9.40;99.90;;;;;;4935982;29;20055;-70
2021/11/01 02:25:05;;;;;;;33.08;23.08;;;9.40;99.90;;;;;;4952278;28;20051;-70
2021/11/01 02:27:36;;;;;;;37.10;23.45;;;9.50;99.90;;;;;;4952706;28;20062;-69
2021/11/01 02:30:07;;;;;;;37.10;23.80;;;9.50;99.90;;;;;;4950402;28;20039;-69
2021/11/01 02:32:36;;;;;;;35.50;22.80;;;9.60;99.90;;;;;;4942791;28;20051;-69
2021/11/01 02:35:05;;;;;;;37.83;23.30;;;9.70;99.90;;;;;;4925121;29;20126;-69
2021/11/01 02:37:37;;;;;;;34.53;23.55;;;9.70;99.90;;;;;;4938586;29;20119;-69
2021/11/01 02:40:06;;;;;;;38.35;24.38;;;9.80;99.90;;;;;;4951002;28;20043;-69
2021/11/01 02:42:34;;;;;;;38.05;25.10;;;9.90;99.90;;;;;;4953076;28;20051;-69
2021/11/01 02:45:07;;;;;;;37.22;23.88;;;9.90;99.90;;;;;;4944227;29;20398;-69
2021/11/01 02:47:35;;;;;;;35.45;23.00;;;9.90;99.90;;;;;;4940455;29;20079;-69
2021/11/01 02:50:07;;;;;;;36.58;23.20;;;9.90;99.90;;;;;;4950945;28;20054;-69
2021/11/01 02:52:35;;;;;;;35.53;23.52;;;10.00;99.90;;;;;;4939794;29;20040;-69
2021/11/01 02:55:05;;;;;;;36.90;25.08;;;10.00;99.90;;;;;;4935629;29;20138;-69
2021/11/01 02:57:34;;;;;;;36.58;23.52;;;10.00;99.90;;;;;;4952460;28;20450;-69
2021/11/01 03:00:02;;;;;;;36.15;24.85;;;10.00;99.90;;;;;;4936673;29;20528;-69
2021/11/01 03:02:31;;;;;;;34.60;23.90;;;10.00;99.90;;;;;;4937017;29;20039;-69
2021/11/01 03:04:59;;;;;;;36.80;24.58;;;10.00;99.90;;;;;;4959972;28;20050;-69
2021/11/01 03:07:26;;;;;;;36.35;24.10;;;10.00;99.90;;;;;;4951428;28;20134;-69
2021/11/01 03:09:54;;;;;;;34.47;23.63;;;10.00;99.90;;;;;;4952791;28;20051;-69
2021/11/01 03:12:25;;;;;;;36.47;24.38;;;10.00;99.90;;;;;;4936526;29;20047;-69
2021/11/01 03:14:58;;;;;;;37.92;23.98;;;10.00;99.90;;;;;;4952903;29;20073;-69
2021/11/01 03:17:27;;;;;;;37.65;25.60;;;10.00;99.90;;;;;;4935939;29;20040;-69
2021/11/01 03:20:15;;;;;;;36.17;25.13;;;9.90;99.90;;;;;;4936324;29;20035;-69
2021/11/01 03:22:47;;;;;;;37.22;24.05;;;9.90;99.90;;;;;;4954253;28;20051;-69
2021/11/01 03:25:23;;;;;;;36.47;23.40;;;9.90;99.90;;;;;;4952576;29;20143;-69
2021/11/01 03:27:54;;;;;;;36.15;24.67;;;9.90;99.90;;;;;;4952206;29;20149;-69
2021/11/01 03:30:22;;;;;;;33.65;23.58;;;9.90;99.90;;;;;;4940731;29;20405;-69
2021/11/01 03:32:51;;;;;;;37.78;25.10;;;9.90;99.90;;;;;;4935659;29;20051;-69
2021/11/01 03:35:19;;;;;;;35.15;24.40;;;9.90;99.90;;;;;;4949200;29;20044;-69
2021/11/01 03:37:51;;;;;;;35.95;23.40;;;9.90;99.90;;;;;;4938448;29;20036;-69
2021/11/01 03:40:20;;;;;;;35.30;24.15;;;9.90;99.90;;;;;;4945930;28;20071;-69
2021/11/01 03:42:49;;;;;;;38.63;24.98;;;9.90;99.90;;;;;;4938165;29;20059;-69
2021/11/01 03:45:18;;;;;;;38.95;24.90;;;9.90;99.90;;;;;;4934042;29;20074;-69
2021/11/01 03:47:48;;;;;;;36.95;24.30;;;9.90;99.90;;;;;;4944808;29;20458;-69
2021/11/01 03:52:52;;;;;;;36.42;24.63;;;9.90;99.90;;;;;;4944217;29;20475;-69
2021/11/01 03:55:21;;;;;;;35.85;24.10;;;9.90;99.90;;;;;;4951150;28;20043;-69
2021/11/01 03:57:49;;;;;;;35.45;23.63;;;9.90;99.90;;;;;;4951192;28;20465;-69
2021/11/01 04:00:17;;;;;;;38.60;24.95;;;9.90;99.90;;;;;;4949622;28;20393;-69
2021/11/01 04:02:46;;;;;;;35.30;23.88;;;10.00;99.90;;;;;;4943285;29;20616;-69
2021/11/01 04:05:14;;;;;;;40.38;26.05;;;10.00;99.90;;;;;;4948705;28;20056;-69
2021/11/01 04:07:41;;;;;;;37.65;25.55;;;10.00;99.90;;;;;;4946952;29;20502;-69
2021/11/01 04:10:09;;;;;;;34.25;22.83;;;10.00;99.90;;;;;;4948312;28;20059;-69
2021/11/01 04:12:38;;;;;;;49.00;26.35;;;10.00;99.90;;;;;;4939866;29;20044;-69
2021/11/01 04:15:10;;;;;;;38.10;25.92;;;10.00;99.90;;;;;;4936487;29;20043;-69
2021/11/01 04:17:43;;;;;;;35.72;23.55;;;10.00;99.90;;;;;;4951546;29;20681;-69
2021/11/01 04:22:54;;;;;;;35.97;23.42;;;10.10;99.90;;;;;;4952457;29;20434;-69
2021/11/01 04:25:23;;;;;;;37.00;24.75;;;10.10;99.90;;;;;;4947331;29;20059;-69
2021/11/01 04:27:50;;;;;;;36.95;25.05;;;10.20;99.90;;;;;;4938902;29;20059;-69
2021/11/01 04:30:18;;;;;;;34.63;24.60;;;10.20;99.90;;;;;;4945510;29;20047;-69
2021/11/01 04:32:50;;;;;;;38.08;25.23;;;10.30;99.90;;;;;;4955184;29;20058;-69
2021/11/01 04:35:25;;;;;;;39.35;25.17;;;10.30;99.90;;;;;;4954420;29;20131;-69
2021/11/01 04:54:18;;;;;;;37.17;24.60;;;10.50;99.90;;;;;;4943393;28;20138;-68
2021/11/01 04:56:46;;;;;;;36.17;25.02;;;10.40;99.90;;;;;;4958857;28;20138;-68
2021/11/01 04:59:14;;;;;;;36.45;24.30;;;10.40;99.90;;;;;;4955270;28;20047;-69
2021/11/01 05:01:46;;;;;;;35.35;23.92;;;10.40;99.90;;;;;;4952079;29;20059;-69
2021/11/01 05:04:17;;;;;;;;;;;10.40;99.90;;;;;;4951028;29;20085;-69
2021/11/01 05:06:59;;;;;;;34.03;23.45;;;10.40;99.90;;;;;;4954907;28;19926;-69
2021/11/01 05:09:31;;;;;;;33.92;22.75;;;10.30;99.90;;;;;;4954132;29;20098;-69
2021/11/01 05:19:58;;;;;;;36.40;24.08;;;10.30;99.90;;;;;;4942554;29;20036;-68
2021/11/01 05:25:03;;;;;;;40.70;24.10;;;10.40;99.90;;;;;;4925990;29;20051;-69
2021/11/01 05:30:11;;;;;;;33.20;23.83;;;10.40;99.90;;;;;;4953487;28;20047;-69
2021/11/01 05:32:41;;;;;;;36.03;23.55;;;10.40;99.90;;;;;;4953704;29;20494;-69
2021/11/01 05:35:09;;;;;;;39.03;25.08;;;10.50;99.90;;;;;;4944296;28;20039;-69
2021/11/01 05:37:36;;;;;;;36.65;23.17;;;10.50;99.90;;;;;;4943110;29;20051;-69
2021/11/01 05:40:04;;;;;;;38.85;25.05;;;10.40;99.90;;;;;;4953698;28;20387;-69
2021/11/01 05:42:32;;;;;;;33.83;23.00;;;10.40;99.90;;;;;;4951377;29;20134;-69
2021/11/01 05:45:00;;;;;;;34.05;22.65;;;10.40;99.90;;;;;;4952412;28;20059;-69
2021/11/01 05:47:28;;;;;;;33.63;22.25;;;10.40;99.90;;;;;;4952732;28;20058;-69
2021/11/01 05:49:56;;;;;;;37.38;23.75;;;10.40;99.90;;;;;;4949205;29;20508;-69
2021/11/01 05:52:28;;;;;;;34.72;24.02;;;10.40;99.90;;;;;;4944489;29;20403;-69
2021/11/01 05:55:01;;;;;;;31.75;21.75;;;10.40;99.90;;;;;;4936293;29;20513;-69
2021/11/01 06:00:09;;;;;;;33.30;22.00;;;10.30;99.90;;;;;;4953624;28;20047;-69
2021/11/01 06:02:44;;;;;;;31.98;20.80;;;10.40;99.90;;;;;;4949538;29;20047;-69
2021/11/01 06:08:26;;;;;;;30.45;22.08;;;10.40;99.90;;;;;;4933745;28;20514;-69
2021/11/01 06:13:40;;;;;;;30.77;19.95;;;10.50;99.90;;;;;;4938834;29;20048;-69
2021/11/01 06:16:08;;;;;;;30.38;20.27;;;10.50;99.90;;;;;;4940209;29;20071;-69
2021/11/01 06:18:35;;;;;;;32.00;22.13;;;10.50;99.90;;;;;;4950274;29;20456;-69
2021/11/01 06:21:04;;;;;;;34.35;22.40;;;10.50;99.90;;;;;;4948829;28;20039;-69
2021/11/01 06:23:33;;;;;;;36.60;25.38;;;10.50;99.90;;;;;;4939085;29;20048;-70
2021/11/01 06:26:02;;;;;;;43.72;28.52;;;10.50;99.90;;;;;;4938697;29;20596;-69
2021/11/01 06:28:30;;;;;;;38.40;26.65;;;10.40;99.90;;;;;;4940805;28;20134;-69
2021/11/01 06:31:10;;;;;;;38.03;25.52;;;10.40;99.90;;;;;;4935598;29;20426;-69
2021/11/01 07:30:47;;;;;;;37.40;24.27;;;11.10;99.90;;;;;;4918303;29;20055;-70
2021/11/01 08:23:42;;;;;;;12.40;8.65;;;12.00;99.90;;;;;;4913005;29;20523;-69
2021/11/01 08:35:15;;;;;;;10.45;6.80;;;11.90;99.90;;;;;;4896883;29;20488;-69
2021/11/01 08:37:21;;;;;;;11.30;7.10;;;11.80;99.90;;;;;;4905183;29;20051;-68
2021/11/01 09:20:20;;;;;;;10.20;5.38;;;11.60;99.90;;;;;;4894357;29;20052;-68
2021/11/01 09:28:16;;;;;;;7.88;3.75;;;11.60;99.90;;;;;;4896105;29;20097;-68
2021/11/01 09:36:13;;;;;;;7.15;4.53;;;11.80;99.90;;;;;;4903442;29;20060;-68
2021/11/01 09:41:29;;;;;;;6.03;3.55;;;11.70;99.90;;;;;;4901187;29;20079;-68
2021/11/01 09:44:01;;;;;;;6.72;3.78;;;11.70;99.90;;;;;;4903253;29;20049;-68
2021/11/01 09:46:29;;;;;;;10.90;5.03;;;11.70;99.90;;;;;;4894133;29;20056;-68
2021/11/01 09:49:16;;;;;;;8.68;4.70;;;11.60;99.90;;;;;;4894457;29;20079;-68
2021/11/01 09:51:50;;;;;;;7.55;3.80;;;11.60;99.90;;;;;;4946547;29;20505;-68
2021/11/01 09:54:27;;;;;;;7.32;4.13;;;11.70;99.90;;;;;;4953409;28;20133;-68
2021/11/01 09:57:03;;;;;;;7.47;4.18;;;11.60;99.90;;;;;;4953794;28;20047;-68
2021/11/01 09:59:38;;;;;;;7.18;3.70;;;11.60;99.90;;;;;;4961866;28;20043;-68
2021/11/01 10:02:10;;;;;;;7.57;4.35;;;11.50;99.90;;;;;;4951155;28;20041;-68
2021/11/01 10:04:41;;;;;;;7.68;4.00;;;11.50;99.90;;;;;;4941867;29;20441;-68
2021/11/01 10:07:33;;;;;;;7.95;4.50;;;11.50;99.90;;;;;;4945696;28;20047;-69
2021/11/01 10:10:05;;;;;;;10.60;4.82;;;11.40;99.90;;;;;;4950015;28;20044;-69
2021/11/01 10:12:36;;;;;;;7.32;4.53;;;11.50;99.90;;;;;;4945136;29;20142;-68
2021/11/01 10:18:09;;;;;;;8.02;3.17;;;11.60;99.90;;;;;;4957782;28;20467;-69
2021/11/01 10:20:52;;;;;;;6.32;3.17;;;11.60;99.90;;;;;;4940167;29;20055;-68
2021/11/01 10:23:33;;;;;;;6.50;3.22;;;11.50;99.90;;;;;;4947223;29;20050;-69
2021/11/01 10:26:16;;;;;;;4.47;2.47;;;11.40;99.90;;;;;;4953048;28;20054;-69
2021/11/01 10:28:52;;;;;;;8.05;3.00;;;11.40;99.90;;;;;;4943372;29;20047;-69
2021/11/01 10:31:25;;;;;;;5.45;2.63;;;11.40;99.90;;;;;;4952547;29;20047;-69
2021/11/01 10:34:06;;;;;;;8.43;2.95;;;11.30;99.90;;;;;;4950112;28;20048;-69
2021/11/01 10:36:38;;;;;;;7.25;3.08;;;11.30;99.90;;;;;;4938046;29;20470;-69
2021/11/01 10:39:09;;;;;;;5.90;2.42;;;11.20;99.90;;;;;;4953071;28;20482;-68
2021/11/01 11:12:36;;;;;;;6.78;1.70;;;10.80;99.90;;;;;;4949372;28;20498;-69
2021/11/01 11:15:14;;;;;;;5.68;1.77;;;10.90;99.90;;;;;;4950135;28;20414;-69
2021/11/01 11:17:51;;;;;;;5.93;1.98;;;10.90;99.90;;;;;;4951136;28;20043;-69
2021/11/01 11:49:06;;;;;;;7.40;2.15;;;11.20;99.90;;;;;;4880173;29;20161;-68
2021/11/01 11:51:40;;;;;;;6.90;2.30;;;11.20;99.90;;;;;;4886410;29;20104;-69
2021/11/01 11:54:08;;;;;;;6.53;2.53;;;11.10;99.90;;;;;;4884179;29;20132;-68
2021/11/01 11:56:46;;;;;;;6.15;2.38;;;11.10;99.90;;;;;;4856686;29;20185;-68
2021/11/01 11:59:19;;;;;;;5.82;1.98;;;11.10;99.90;;;;;;4883374;29;20056;-68
2021/11/01 12:01:54;;;;;;;7.78;2.13;;;11.00;99.90;;;;;;4857161;29;20045;-68
2021/11/01 12:04:32;;;;;;;6.47;1.92;;;10.80;99.90;;;;;;4869173;29;20052;-68
2021/11/01 12:07:03;;;;;;;4.78;2.00;;;10.70;99.90;;;;;;4870379;29;20052;-68
2021/11/01 12:09:45;;;;;;;4.10;1.92;;;10.50;99.90;;;;;;4876184;29;20043;-68
2021/11/01 12:17:32;;;;;;;6.57;2.53;;;10.50;99.90;;;;;;4941584;29;20051;-71
2021/11/01 12:20:09;;;;;;;6.82;2.60;;;10.50;99.90;;;;;;4946843;29;20090;-69
2021/11/01 12:22:42;;;;;;;7.75;2.80;;;10.50;99.90;;;;;;4942073;29;20146;-69
2021/11/01 12:25:14;;;;;;;8.02;3.13;;;10.60;99.90;;;;;;4944464;28;20103;-69
2021/11/01 12:28:00;;;;;;;9.00;3.03;;;10.60;99.90;;;;;;4951438;28;20047;-69
2021/11/01 12:30:39;;;;;;;7.13;4.13;;;10.60;99.90;;;;;;4923783;29;20228;-69
2021/11/01 12:33:07;;;;;;;6.03;2.92;;;10.70;99.90;;;;;;4962775;28;20418;-69
2021/11/01 12:35:46;;;;;;;7.72;3.50;;;10.80;99.90;;;;;;4953319;28;20047;-69
2021/11/01 12:38:19;;;;;;;6.78;3.05;;;10.70;99.90;;;;;;4955518;28;20333;-69
2021/11/01 12:40:54;;;;;;;9.75;3.00;;;10.80;99.90;;;;;;4960122;28;20055;-69
2021/11/01 12:59:51;;;;;;;7.72;2.53;;;10.70;99.90;;;;;;4952857;29;20530;-68
2021/11/01 13:02:38;;;;;;;7.20;2.70;;;10.80;99.90;;;;;;4952665;28;20596;-68
2021/11/01 13:05:13;;;;;;;6.20;2.70;;;10.90;99.90;;;;;;4951059;28;20050;-68
2021/11/01 13:10:23;;;;;;;7.53;2.70;;;10.80;99.90;;;;;;4952281;28;20058;-69
2021/11/01 13:18:11;;;;;;;8.73;3.90;;;10.90;99.90;;;;;;4953973;28;20493;-68
2021/11/01 13:20:43;;;;;;;8.73;3.20;;;10.90;99.90;;;;;;4952843;29;20051;-68
2021/11/01 13:23:12;;;;;;;;;;;11.00;99.90;;;;;;4953903;28;20039;-69
2021/11/01 13:37:11;;;;;;;5.05;2.92;;;10.80;99.90;;;;;;4950309;28;20039;-69
2021/11/01 13:39:39;;;;;;;7.55;2.92;;;10.80;99.90;;;;;;4955833;28;20074;-69
2021/11/01 13:42:15;;;;;;;7.72;3.00;;;10.70;99.90;;;;;;4954380;28;20058;-70
2021/11/01 13:44:45;;;;;;;6.97;3.42;;;10.80;99.90;;;;;;4950589;29;20481;-69
2021/11/01 13:47:17;;;;;;;4.93;2.65;;;10.80;99.90;;;;;;4954982;28;20130;-70
2021/11/01 13:49:48;;;;;;;5.75;3.08;;;10.70;99.90;;;;;;4937484;29;20471;-69
2021/11/01 13:58:05;;;;;;;6.03;3.38;;;10.70;99.90;;;;;;4916129;29;20166;-69
2021/11/01 14:11:50;;;;;;;8.65;3.80;;;10.80;99.90;;;;;;4946906;29;20281;-69
2021/11/01 14:33:29;;;;;;;6.53;2.70;;;10.50;99.90;;;;;;4931284;28;20039;-69
2021/11/01 14:36:40;;;;;;;5.78;2.72;;;10.40;99.90;;;;;;4935231;29;20043;-69
2021/11/01 15:19:28;;;;;;;8.25;3.22;;;10.20;99.90;;;;;;4941411;28;20394;-69
2021/11/01 15:28:01;;;;;;;6.43;2.58;;;10.20;99.90;;;;;;4952344;28;20138;-68
2021/11/01 16:19:38;;;;;;;7.47;2.33;;;9.90;99.90;;;;;;4956941;28;20070;-69
2021/11/01 16:22:11;;;;;;;5.65;2.85;;;9.90;99.90;;;;;;4945031;29;20449;-69
2021/11/01 16:24:41;;;;;;;5.03;2.60;;;9.90;99.90;;;;;;4949441;28;20031;-69
2021/11/01 16:27:10;;;;;;;9.63;3.72;;;9.90;99.90;;;;;;4941226;29;20071;-68
2021/11/01 16:30:00;;;;;;;6.40;2.90;;;9.80;99.90;;;;;;4962880;28;20039;-68
2021/11/01 16:32:38;;;;;;;6.40;2.50;;;9.80;99.90;;;;;;4959624;28;20047;-69
2021/11/01 16:35:07;;;;;;;6.35;2.60;;;9.80;99.90;;;;;;4956225;28;20082;-69
2021/11/01 16:40:13;;;;;;;6.18;2.70;;;9.70;99.90;;;;;;4955534;28;19981;-69
2021/11/01 16:42:43;;;;;;;8.35;2.78;;;9.60;99.90;;;;;;4957691;28;20036;-69
2021/11/01 16:45:24;;;;;;;5.95;3.50;;;9.60;99.90;;;;;;4947698;28;20118;-69
2021/11/01 16:47:52;;;;;;;6.43;3.10;;;9.60;99.90;;;;;;4948874;29;20077;-69
2021/11/01 16:50:20;;;;;;;5.82;2.83;;;9.60;99.90;;;;;;4963004;28;20374;-69
2021/11/01 16:52:49;;;;;;;7.18;2.78;;;9.60;99.90;;;;;;4955640;28;20502;-69
2021/11/01 16:55:20;;;;;;;5.38;3.05;;;9.50;99.90;;;;;;4961259;28;20053;-69
2021/11/01 16:57:53;;;;;;;6.68;3.67;;;9.60;99.90;;;;;;4949950;28;20371;-69
2021/11/01 17:00:38;;;;;;;6.10;2.95;;;9.60;99.90;;;;;;4956122;28;20039;-69
2021/11/01 17:21:51;;;;;;;6.55;3.03;;;9.40;99.90;;;;;;4932528;29;20040;-68
2021/11/01 17:24:38;;;;;;;9.05;3.33;;;9.40;99.90;;;;;;4944649;28;20431;-67
2021/11/01 17:35:47;;;;;;;7.60;3.47;;;9.40;99.90;;;;;;4948364;28;20066;-67
2021/11/01 18:40:44;;;;;;;8.38;4.60;;;9.20;99.90;;;;;;4943694;29;20495;-68
2021/11/01 18:51:32;;;;;;;7.07;4.05;;;9.20;99.90;;;;;;4942297;29;20047;-68
2021/11/01 18:54:09;;;;;;;8.05;4.20;;;9.20;99.90;;;;;;4944859;28;20123;-68
2021/11/01 18:56:39;;;;;;;9.13;4.18;;;9.20;99.90;;;;;;4947986;28;20039;-68
2021/11/01 18:59:08;;;;;;;7.88;4.00;;;9.20;99.90;;;;;;4924819;29;20062;-68
2021/11/01 19:01:38;;;;;;;6.32;3.55;;;9.20;99.90;;;;;;4952641;29;20043;-68
2021/11/01 19:04:15;;;;;;;7.90;3.88;;;9.20;99.90;;;;;;4947098;29;20047;-68
2021/11/01 19:06:48;;;;;;;6.55;3.60;;;9.20;99.90;;;;;;4952914;28;20134;-68
2021/11/01 20:05:26;;;;;;;5.00;2.78;;;9.20;99.90;;;;;;4947520;28;20481;-68
2021/11/01 20:16:32;;;;;;;6.75;3.20;;;9.20;99.90;;;;;;4953169;28;20502;-68
2021/11/01 21:27:03;;;;;;;10.27;3.42;;;9.00;99.90;;;;;;4952268;29;20062;-67
2021/11/01 21:29:36;;;;;;;5.82;3.30;;;8.90;99.90;;;;;;4952965;28;20046;-67
2021/11/01 21:32:06;;;;;;;8.07;3.50;;;9.00;99.90;;;;;;4949859;28;20051;-66
2021/11/01 21:34:36;;;;;;;5.85;3.20;;;8.90;99.90;;;;;;4938329;29;20053;-67
2021/11/01 21:37:05;;;;;;;5.47;3.20;;;8.90;99.90;;;;;;4950426;29;20055;-67
2021/11/01 21:39:34;;;;;;;5.50;2.95;;;8.90;99.90;;;;;;4952453;28;20494;-66
2021/11/01 21:42:02;;;;;;;4.65;3.00;;;8.90;99.90;;;;;;4935886;29;20043;-66
2021/11/01 21:44:38;;;;;;;4.63;2.90;;;8.90;99.90;;;;;;4953005;28;20043;-66
2021/11/01 21:47:07;;;;;;;6.85;3.45;;;8.90;99.90;;;;;;4941776;29;20050;-66
2021/11/01 21:49:34;;;;;;;4.97;2.60;;;8.90;99.90;;;;;;4952161;28;20058;-66
2021/11/01 21:52:03;;;;;;;6.10;3.17;;;8.90;99.90;;;;;;4964933;28;20043;-67
2021/11/01 21:54:33;;;;;;;7.68;4.88;;;8.90;99.90;;;;;;4946967;28;20074;-66
2021/11/01 21:57:08;;;;;;;8.50;4.45;;;8.90;99.90;;;;;;4961179;28;20078;-67
2021/11/01 22:21:18;;;;;;;6.20;3.40;;;8.90;99.90;;;;;;4953245;29;20122;-67
2021/11/01 22:24:01;;;;;;;4.57;2.70;;;8.90;99.90;;;;;;4953423;28;20577;-67
2021/11/01 22:42:49;;;;;;;8.10;3.30;;;8.90;99.90;;;;;;4952740;28;20043;-67
2021/11/01 22:45:23;;;;;;;8.00;3.25;;;8.90;99.90;;;;;;4952922;28;20055;-66
2021/11/01 22:56:38;;;;;;;5.88;3.45;;;8.80;99.90;;;;;;4899822;29;20078;-67
2021/11/01 22:59:06;;;;;;;5.38;3.15;;;8.80;99.90;;;;;;4913725;29;20445;-68
2021/11/01 23:01:39;;;;;;;6.32;3.45;;;8.80;99.90;;;;;;4893171;29;20044;-67
2021/11/01 23:07:00;;;;;;;4.68;3.13;;;8.70;99.90;;;;;;4909227;29;20105;-67
2021/11/01 23:31:38;;;;;;;6.72;3.45;;;8.50;99.90;;;;;;4951837;28;20418;-67
2021/11/01 23:34:09;;;;;;;6.18;3.58;;;8.40;99.90;;;;;;4951985;29;20047;-67
2021/11/01 23:36:38;;;;;;;7.45;3.42;;;8.40;99.90;;;;;;4949690;29;20470;-67
2021/11/01 23:39:08;;;;;;;7.65;3.75;;;8.30;99.90;;;;;;4951628;28;20054;-67
2021/11/01 23:41:39;;;;;;;5.80;3.38;;;8.30;99.90;;;;;;4949952;29;20047;-67
2021/11/01 23:44:07;;;;;;;7.80;3.77;;;8.30;99.90;;;;;;4951342;28;20462;-66
2021/11/01 23:46:35;;;;;;;6.72;3.60;;;8.20;99.90;;;;;;4950806;29;20283;-66
2021/11/01 23:49:05;;;;;;;6.22;3.53;;;8.10;99.90;;;;;;4952462;28;20521;-66
2021/11/01 23:51:36;;;;;;;6.57;3.72;;;8.10;99.90;;;;;;4952307;29;20047;-66
2021/11/01 23:56:50;;;;;;;6.75;3.70;;;8.10;99.90;;;;;;4950579;29;20564;-66
2021/11/01 23:59:18;;;;;;;5.65;3.70;;;8.00;99.90;;;;;;4959760;28;20502;-67
